Silvero — SDAK — position and weather

sailwx.info

Track history (hours):
 
Tides and Currents Weather Stations Pressure Air Temp Water Temp Dewpoint Dewpoint Depression Visibility Wind Speed Wind Dir Waves Ship Positions

Silvero

Last reported at 2017-Aug-17 06:00 UTC. Time now 2017-Aug-17 06:09 UTC.
Position N 59°24' E 018°21'.

Length 22 m.

Type: Passenger vessel. MMSI: 265568520.

Date/timePositionNaut miles runAvg speedWind from/ knotsBaromVisibWave heightAir tempDewpointWater temp
2017-Aug-17 06:00N 59°24' E 018°21'2 3.7
2017-Aug-17 05:30N 59°22' E 018°21'2 3.4
2017-Aug-17 04:56N 59°23' E 018°25'3 5.9
2017-Aug-17 04:30N 59°24' E 018°21'0 0.0
2017-Aug-17 04:00N 59°24' E 018°21'0 0.0
2017-Aug-17 03:30N 59°24' E 018°21'0 0.0
2017-Aug-17 03:00N 59°24' E 018°21'0 0.0
2017-Aug-17 02:30N 59°24' E 018°21'0 0.0
2017-Aug-17 02:00N 59°24' E 018°21'0 0.0
2017-Aug-17 01:30N 59°24' E 018°21'0 0.0
2017-Aug-17 01:00N 59°24' E 018°21'0 0.0
2017-Aug-17 00:30N 59°24' E 018°21'0 0.0
2017-Aug-17 00:00N 59°24' E 018°21'0 0.0
2017-Aug-16 23:30N 59°24' E 018°21'0 0.0
2017-Aug-16 23:00N 59°24' E 018°21'0 0.0
2017-Aug-16 22:30N 59°24' E 018°21'0 0.0
2017-Aug-16 22:00N 59°24' E 018°21'0 0.0
2017-Aug-16 21:30N 59°24' E 018°21'0 0.0
2017-Aug-16 21:00N 59°24' E 018°21'0 0.0
2017-Aug-16 20:30N 59°24' E 018°21'0 0.0
2017-Aug-16 20:00N 59°24' E 018°21'0 0.0
2017-Aug-16 19:29N 59°24' E 018°21'0 0.0
2017-Aug-16 19:00N 59°24' E 018°21'0 0.0
2017-Aug-16 18:30N 59°24' E 018°21'0 0.0
2017-Aug-16 18:00N 59°24' E 018°21'1 2.5
2017-Aug-16 17:30N 59°23' E 018°23'2 2.8
2017-Aug-16 16:45N 59°22' E 018°26'2 6.9
2017-Aug-16 16:30N 59°23' E 018°24'2 3.5
2017-Aug-16 16:00N 59°24' E 018°21'3 5.5
2017-Aug-16 15:23N 59°22' E 018°27'2 6.5
2017-Aug-16 15:00N 59°22' E 018°22'3 6.6
2017-Aug-16 14:30N 59°22' E 018°15'5 8.9
2017-Aug-16 14:00N 59°24' E 018°24'1 2.2
2017-Aug-16 13:27N 59°23' E 018°26'0 0.3
2017-Aug-16 12:47N 59°23' E 018°26'2 7.0
2017-Aug-16 12:30N 59°24' E 018°23'1 1.0
2017-Aug-16 12:00N 59°24' E 018°23'2 4.6
2017-Aug-16 11:30N 59°25' E 018°21'1 2.8
2017-Aug-16 11:00N 59°24' E 018°21'0 0.0
2017-Aug-16 10:30N 59°24' E 018°21'0 0.0
2017-Aug-16 10:00N 59°24' E 018°21'0 0.0
2017-Aug-16 09:30N 59°24' E 018°21'0 0.0
2017-Aug-16 09:00N 59°24' E 018°21'0 0.0
2017-Aug-16 08:30N 59°24' E 018°21'0 0.0
2017-Aug-16 08:00N 59°24' E 018°21'1 2.8
2017-Aug-16 07:28N 59°23' E 018°24'1 1.7
2017-Aug-16 06:45N 59°23' E 018°26'1 5.1
2017-Aug-16 06:29N 59°23' E 018°23'1 2.7
2017-Aug-16 06:00N 59°24' E 018°21'2 3.7
2017-Aug-16 05:30N 59°22' E 018°21'2 4.8
2017-Aug-16 05:00N 59°22' E 018°26'3 6.1
2017-Aug-16 04:30N 59°24' E 018°21'0 0.0
2017-Aug-16 04:00N 59°24' E 018°21'0 0.0
2017-Aug-16 03:30N 59°24' E 018°21'0 0.0
2017-Aug-16 03:00N 59°24' E 018°21'0 0.0
2017-Aug-16 02:30N 59°24' E 018°21'0 0.0
2017-Aug-16 02:00N 59°24' E 018°21'0 0.0
2017-Aug-16 01:30N 59°24' E 018°21'0 0.0
2017-Aug-16 01:00N 59°24' E 018°21'0 0.0
2017-Aug-16 00:30N 59°24' E 018°21'0 0.0
2017-Aug-16 00:00N 59°24' E 018°21'0 0.0
2017-Aug-15 23:30N 59°24' E 018°21'0 0.0
2017-Aug-15 23:00N 59°24' E 018°21'0 0.0
2017-Aug-15 22:30N 59°24' E 018°21'0 0.0
2017-Aug-15 22:00N 59°24' E 018°21'0 0.0
2017-Aug-15 21:30N 59°24' E 018°21'0 0.0
2017-Aug-15 21:00N 59°24' E 018°21'0 0.0
2017-Aug-15 20:30N 59°24' E 018°21'0 0.0
2017-Aug-15 20:00N 59°24' E 018°21'0 0.0
2017-Aug-15 19:30N 59°24' E 018°21'0 0.0
2017-Aug-15 19:00N 59°24' E 018°21'0 0.0
2017-Aug-15 18:30N 59°24' E 018°21'0 0.0
2017-Aug-15 17:59N 59°24' E 018°21'2 3.2
2017-Aug-15 17:30N 59°23' E 018°24'2 3.8
2017-Aug-15 17:00N 59°21' E 018°25'2 4.0
2017-Aug-15 16:29N 59°23' E 018°25'2 4.6
2017-Aug-15 16:00N 59°24' E 018°21'3 5.8
2017-Aug-15 15:27N 59°22' E 018°26'3 6.1
2017-Aug-15 15:01N 59°22' E 018°21'3 5.2
2017-Aug-15 14:31N 59°22' E 018°16'4 8.7
2017-Aug-15 14:00N 59°24' E 018°24'1 1.9
2017-Aug-15 13:29N 59°23' E 018°25'1 0.7
2017-Aug-15 12:47N 59°23' E 018°24'1 5.1
2017-Aug-15 12:30N 59°24' E 018°22'2 3.9
2017-Aug-15 11:58N 59°23' E 018°25'2 5.2
2017-Aug-15 11:30N 59°25' E 018°22'1 1.7
2017-Aug-15 11:00N 59°24' E 018°21'0 0.9
2017-Aug-15 10:30N 59°24' E 018°22'0 0.0
2017-Aug-15 10:00N 59°24' E 018°22'0 0.0
2017-Aug-15 09:30N 59°24' E 018°22'0 0.0
2017-Aug-15 09:00N 59°24' E 018°22'0 0.0
2017-Aug-15 08:30N 59°24' E 018°22'0 0.9
2017-Aug-15 08:00N 59°24' E 018°21'1 2.6
2017-Aug-15 07:28N 59°23' E 018°23'2 2.1
2017-Aug-15 06:44N 59°23' E 018°26'2 7.1
2017-Aug-15 06:30N 59°23' E 018°23'1 2.5
2017-Aug-15 06:00N 59°24' E 018°21'2 3.3
2017-Aug-15 05:30N 59°22' E 018°22'2 3.3
2017-Aug-15 04:56N 59°23' E 018°25'3 5.5
2017-Aug-15 04:29N 59°24' E 018°21'0 0.0
2017-Aug-15 04:00N 59°24' E 018°21'0 0.0
2017-Aug-15 03:30N 59°24' E 018°21'0 0.0
2017-Aug-15 03:00N 59°24' E 018°21'0 0.0
2017-Aug-15 02:30N 59°24' E 018°21'0 0.0
2017-Aug-15 02:00N 59°24' E 018°21'0 0.0
2017-Aug-15 01:30N 59°24' E 018°21'0 0.0
2017-Aug-15 01:00N 59°24' E 018°21'0 0.0
2017-Aug-15 00:30N 59°24' E 018°21'0 0.0
2017-Aug-15 00:00N 59°24' E 018°21'0 0.0
2017-Aug-14 23:30N 59°24' E 018°21'0 0.0
2017-Aug-14 23:00N 59°24' E 018°21'0 0.0
2017-Aug-14 22:31N 59°24' E 018°21'0 0.0
2017-Aug-14 22:00N 59°24' E 018°21'0 0.0
2017-Aug-14 21:30N 59°24' E 018°21'0 0.0
2017-Aug-14 21:00N 59°24' E 018°21'0 0.0
2017-Aug-14 20:30N 59°24' E 018°21'0 0.0
2017-Aug-14 20:00N 59°24' E 018°21'0 0.0
2017-Aug-14 19:30N 59°24' E 018°21'0 0.0
2017-Aug-14 19:00N 59°24' E 018°21'0 0.0
2017-Aug-14 18:30N 59°24' E 018°21'0 0.0
2017-Aug-14 18:01N 59°24' E 018°21'2 3.9
2017-Aug-14 17:30N 59°23' E 018°24'1 3.0
2017-Aug-14 17:00N 59°21' E 018°25'2 4.1
2017-Aug-14 16:30N 59°23' E 018°25'2 4.1
2017-Aug-14 16:01N 59°24' E 018°21'3 5.4
2017-Aug-14 15:30N 59°23' E 018°26'2 4.0
2017-Aug-14 15:01N 59°23' E 018°22'3 6.5
2017-Aug-14 14:30N 59°22' E 018°16'4 7.8
2017-Aug-14 14:00N 59°24' E 018°23'1 2.1
2017-Aug-14 13:30N 59°23' E 018°25'2 3.3
2017-Aug-14 12:59N 59°22' E 018°26'3 5.6
2017-Aug-14 12:30N 59°24' E 018°23'0 0.6
2017-Aug-14 12:00N 59°24' E 018°23'1 2.8
2017-Aug-14 11:31N 59°25' E 018°22'1 1.9
2017-Aug-14 11:00N 59°24' E 018°21'0 0.0
2017-Aug-14 10:30N 59°24' E 018°21'0 0.0
2017-Aug-14 10:00N 59°24' E 018°21'0 0.0
2017-Aug-14 09:30N 59°24' E 018°21'0 0.0
2017-Aug-14 09:00N 59°24' E 018°21'0 0.0
2017-Aug-14 08:30N 59°24' E 018°21'0 0.0
2017-Aug-14 08:00N 59°24' E 018°21'1 1.7
2017-Aug-14 07:30N 59°24' E 018°23'2 5.0
2017-Aug-14 07:00N 59°21' E 018°25'2 4.4
2017-Aug-14 06:30N 59°23' E 018°24'1 2.8
2017-Aug-14 06:00N 59°24' E 018°21'2 3.8
2017-Aug-14 05:31N 59°22' E 018°22'2 4.9
2017-Aug-14 05:00N 59°22' E 018°27'3 6.4
2017-Aug-14 04:30N 59°24' E 018°21'0 0.0
2017-Aug-14 04:00N 59°24' E 018°21'0 0.0
2017-Aug-14 03:30N 59°24' E 018°21'0 0.0
2017-Aug-14 03:00N 59°24' E 018°21'0 0.0
2017-Aug-14 02:30N 59°24' E 018°21'0 0.0
2017-Aug-14 02:00N 59°24' E 018°21'0 0.0
2017-Aug-14 01:30N 59°24' E 018°21'0 0.0
2017-Aug-14 01:00N 59°24' E 018°21'0 0.0
2017-Aug-14 00:30N 59°24' E 018°21'0 0.0
2017-Aug-14 00:00N 59°24' E 018°21'0 0.0
2017-Aug-13 23:30N 59°24' E 018°21'0 0.0
2017-Aug-13 23:00N 59°24' E 018°21'0 0.0
2017-Aug-13 22:30N 59°24' E 018°21'0 0.0
2017-Aug-13 22:00N 59°24' E 018°21'0 0.0
2017-Aug-13 21:29N 59°24' E 018°21'0 0.0
2017-Aug-13 21:00N 59°24' E 018°21'0 0.0
2017-Aug-13 20:30N 59°24' E 018°21'0 0.0
2017-Aug-13 20:00N 59°24' E 018°21'0 0.0
2017-Aug-13 19:30N 59°24' E 018°21'0 0.0
2017-Aug-13 19:00N 59°24' E 018°21'0 0.0
2017-Aug-13 18:30N 59°24' E 018°21'0 0.0
2017-Aug-13 18:00N 59°24' E 018°21'3 6.6
2017-Aug-13 17:29N 59°22' E 018°27'1 0.9
2017-Aug-13 16:57N 59°22' E 018°26'3 6.2
2017-Aug-13 16:29N 59°24' E 018°22'0 0.9
2017-Aug-13 16:00N 59°23' E 018°23'2 1.7
2017-Aug-13 14:44N 59°22' E 018°26'1 5.4
2017-Aug-13 14:30N 59°23' E 018°25'2 4.4
2017-Aug-13 14:00N 59°24' E 018°21'0 0.0
2017-Aug-13 13:30N 59°24' E 018°21'1 2.3
2017-Aug-13 12:59N 59°25' E 018°21'4 8.7
2017-Aug-13 12:30N 59°27' E 018°28'0 0.8
2017-Aug-13 11:58N 59°27' E 018°29'4 8.0
2017-Aug-13 11:30N 59°25' E 018°22'1 2.7
2017-Aug-13 11:01N 59°24' E 018°21'0 0.0
2017-Aug-13 10:30N 59°24' E 018°21'0 0.0
2017-Aug-13 10:00N 59°24' E 018°21'2 3.1
2017-Aug-13 09:30N 59°23' E 018°24'1 3.0
2017-Aug-13 09:00N 59°24' E 018°21'0 0.1
2017-Aug-13 08:30N 59°24' E 018°21'1 3.0
2017-Aug-13 08:00N 59°23' E 018°24'2 2.6
2017-Aug-13 07:19N 59°22' E 018°26'1 4.1
2017-Aug-13 06:59N 59°23' E 018°24'2 3.9
2017-Aug-13 06:30N 59°24' E 018°21'0 0.0
2017-Aug-13 05:59N 59°24' E 018°21'0 0.0
2017-Aug-13 05:30N 59°24' E 018°21'0 0.0
2017-Aug-13 05:00N 59°24' E 018°21'0 0.0
2017-Aug-13 04:30N 59°24' E 018°21'0 0.0
2017-Aug-13 04:00N 59°24' E 018°21'0 0.0
2017-Aug-13 03:30N 59°24' E 018°21'0 0.0
2017-Aug-13 02:58N 59°24' E 018°21'0 0.0
2017-Aug-13 02:30N 59°24' E 018°21'0 0.0
2017-Aug-13 01:59N 59°24' E 018°21'0 0.0
2017-Aug-13 01:30N 59°24' E 018°21'0 0.0
2017-Aug-13 01:00N 59°24' E 018°21'0 0.0
2017-Aug-13 00:30N 59°24' E 018°21'0 0.0
2017-Aug-13 00:00N 59°24' E 018°21'0 0.0
2017-Aug-12 23:30N 59°24' E 018°21'0 0.0
2017-Aug-12 23:00N 59°24' E 018°21'0 0.0
2017-Aug-12 22:30N 59°24' E 018°21'0 0.0
2017-Aug-12 19:37N 59°24' E 018°21'0 0.0
2017-Aug-12 19:29N 59°24' E 018°21'0 0.0
2017-Aug-12 18:57N 59°24' E 018°21'0 0.0
2017-Aug-12 18:30N 59°24' E 018°21'0 0.0
2017-Aug-12 17:58N 59°24' E 018°21'0 0.0
2017-Aug-12 17:30N 59°24' E 018°21'1 2.0
2017-Aug-12 17:00N 59°25' E 018°22'4 7.7
2017-Aug-12 16:30N 59°27' E 018°29'1 1.4
2017-Aug-12 15:59N 59°28' E 018°29'4 8.8
2017-Aug-12 15:30N 59°25' E 018°22'2 4.0
2017-Aug-12 14:59N 59°24' E 018°24'0 0.9
2017-Aug-12 14:28N 59°23' E 018°24'2 3.8
2017-Aug-12 14:00N 59°24' E 018°21'1 2.4
2017-Aug-12 13:30N 59°23' E 018°23'2 3.5
2017-Aug-12 12:52N 59°21' E 018°25'2 4.9
2017-Aug-12 12:27N 59°23' E 018°25'2 3.5
2017-Aug-12 12:00N 59°24' E 018°22'0 0.3
2017-Aug-12 11:30N 59°24' E 018°22'0 0.0
2017-Aug-12 11:00N 59°24' E 018°22'1 1.4
2017-Aug-12 10:30N 59°25' E 018°22'1 1.8
2017-Aug-12 10:00N 59°24' E 018°21'2 3.8
2017-Aug-12 09:27N 59°23' E 018°25'2 4.9
2017-Aug-12 09:00N 59°24' E 018°22'0 0.3
2017-Aug-12 08:30N 59°24' E 018°21'0 0.7
2017-Aug-12 08:00N 59°24' E 018°22'3 6.2
2017-Aug-12 07:30N 59°21' E 018°25'3 5.8
2017-Aug-12 07:00N 59°24' E 018°22'0 0.7
2017-Aug-12 06:30N 59°24' E 018°21'0 0.0
2017-Aug-12 06:00N 59°24' E 018°21'0 0.0
2017-Aug-12 05:30N 59°24' E 018°21'0 0.0
2017-Aug-12 05:00N 59°24' E 018°21'0 0.0
2017-Aug-12 04:30N 59°24' E 018°21'0 0.0
2017-Aug-12 04:00N 59°24' E 018°21'0 0.0
2017-Aug-12 03:30N 59°24' E 018°21'0 0.0
2017-Aug-12 03:00N 59°24' E 018°21'0 0.0
2017-Aug-12 02:30N 59°24' E 018°21'0 0.0
2017-Aug-12 02:00N 59°24' E 018°21'0 0.0
2017-Aug-12 01:30N 59°24' E 018°21'0 0.0
2017-Aug-12 01:00N 59°24' E 018°21'0 0.0
2017-Aug-12 00:30N 59°24' E 018°21'0 0.0
2017-Aug-12 00:00N 59°24' E 018°21'0 0.0
2017-Aug-11 23:30N 59°24' E 018°21'0 0.0
2017-Aug-11 23:00N 59°24' E 018°21'0 0.0
2017-Aug-11 22:30N 59°24' E 018°21'0 0.0
2017-Aug-11 22:00N 59°24' E 018°21'0 0.0
2017-Aug-11 21:30N 59°24' E 018°21'0 0.0
2017-Aug-11 21:00N 59°24' E 018°21'0 0.0
2017-Aug-11 20:30N 59°24' E 018°21'0 0.0
2017-Aug-11 20:00N 59°24' E 018°21'0 0.0
2017-Aug-11 19:30N 59°24' E 018°21'0 0.0
2017-Aug-11 19:00N 59°24' E 018°21'0 0.0
2017-Aug-11 18:30N 59°24' E 018°21'0 0.0
2017-Aug-11 18:00N 59°24' E 018°21'1 3.0
2017-Aug-11 17:30N 59°23' E 018°24'2 3.9
2017-Aug-11 17:00N 59°21' E 018°25'2 3.9
2017-Aug-11 16:28N 59°23' E 018°26'3 5.4
2017-Aug-11 16:00N 59°24' E 018°21'3 5.7
2017-Aug-11 15:30N 59°23' E 018°26'2 4.5
2017-Aug-11 14:59N 59°22' E 018°22'1 1.5
2017-Aug-11 14:00N 59°24' E 018°23'2 4.0
2017-Aug-11 13:31N 59°23' E 018°26'0 0.3
2017-Aug-11 12:55N 59°23' E 018°26'2 5.1
2017-Aug-11 12:30N 59°24' E 018°23'2 3.4
2017-Aug-11 12:00N 59°23' E 018°26'2 4.9
2017-Aug-11 11:30N 59°25' E 018°22'1 1.6
2017-Aug-11 11:00N 59°24' E 018°21'0 0.0
2017-Aug-11 10:30N 59°24' E 018°21'0 0.0
2017-Aug-11 10:00N 59°24' E 018°21'2 3.1
2017-Aug-11 09:30N 59°26' E 018°22'4 6.0
2017-Aug-11 08:52N 59°25' E 018°30'2 4.8
2017-Aug-11 08:27N 59°26' E 018°26'3 6.3
2017-Aug-11 07:59N 59°24' E 018°21'1 2.6
2017-Aug-11 07:30N 59°23' E 018°23'2 3.5
2017-Aug-11 06:52N 59°22' E 018°27'2 5.6
2017-Aug-11 06:29N 59°23' E 018°23'1 2.6
2017-Aug-11 06:00N 59°24' E 018°21'2 4.3
2017-Aug-11 05:30N 59°22' E 018°21'2 4.0
2017-Aug-11 04:56N 59°23' E 018°25'2 5.6
2017-Aug-11 04:30N 59°24' E 018°21'0 0.0
2017-Aug-11 04:01N 59°24' E 018°21'0 0.0
2017-Aug-11 03:30N 59°24' E 018°21'0 0.0
2017-Aug-11 03:00N 59°24' E 018°21'0 0.0
2017-Aug-11 02:30N 59°24' E 018°21'0 0.0
2017-Aug-11 02:01N 59°24' E 018°21'0 0.0
2017-Aug-11 01:30N 59°24' E 018°21'0 0.0
2017-Aug-11 01:00N 59°24' E 018°21'0 0.0
2017-Aug-11 00:30N 59°24' E 018°21'0 0.0
2017-Aug-11 00:00N 59°24' E 018°21'0 0.0
2017-Aug-10 23:30N 59°24' E 018°21'0 0.0
2017-Aug-10 23:00N 59°24' E 018°21'0 0.0
2017-Aug-10 22:31N 59°24' E 018°21'0 0.0
2017-Aug-10 22:00N 59°24' E 018°21'0 0.0
2017-Aug-10 21:30N 59°24' E 018°21'0 0.0
2017-Aug-10 21:00N 59°24' E 018°21'0 0.0
2017-Aug-10 20:30N 59°24' E 018°21'0 0.0
2017-Aug-10 20:00N 59°24' E 018°21'0 0.0
2017-Aug-10 19:30N 59°24' E 018°21'0 0.0
2017-Aug-10 19:00N 59°24' E 018°21'0 0.0
2017-Aug-10 18:31N 59°24' E 018°21'0 0.0
2017-Aug-10 18:00N 59°24' E 018°21'1 2.2
2017-Aug-10 17:30N 59°23' E 018°23'2 2.5
2017-Aug-10 16:39N 59°22' E 018°26'1 3.9
2017-Aug-10 16:26N 59°23' E 018°26'3 6.2
2017-Aug-10 16:00N 59°24' E 018°21'3 5.9
2017-Aug-10 15:26N 59°22' E 018°27'2 5.8
2017-Aug-10 15:00N 59°22' E 018°22'3 5.7
2017-Aug-10 14:31N 59°22' E 018°16'3 6.1
2017-Aug-10 13:58N 59°24' E 018°21'2 4.9
2017-Aug-10 13:30N 59°23' E 018°26'0 0.3
2017-Aug-10 12:45N 59°23' E 018°26'2 7.1
2017-Aug-10 12:30N 59°24' E 018°23'1 2.5
2017-Aug-10 12:00N 59°23' E 018°25'2 4.1
2017-Aug-10 11:30N 59°25' E 018°22'1 1.7
2017-Aug-10 11:00N 59°24' E 018°21'0 0.0
2017-Aug-10 10:30N 59°24' E 018°21'0 0.0
2017-Aug-10 10:00N 59°24' E 018°21'0 0.0
2017-Aug-10 09:30N 59°24' E 018°21'0 0.0
2017-Aug-10 09:00N 59°24' E 018°21'0 0.0
2017-Aug-10 08:30N 59°24' E 018°21'0 0.1
2017-Aug-10 08:00N 59°24' E 018°21'1 1.1
2017-Aug-10 07:30N 59°24' E 018°22'3 3.9
2017-Aug-10 06:48N 59°22' E 018°26'2 6.9
2017-Aug-10 06:30N 59°23' E 018°24'1 2.8
2017-Aug-10 06:00N 59°24' E 018°21'2 3.3
2017-Aug-10 05:31N 59°22' E 018°22'2 3.4
2017-Aug-10 04:58N 59°23' E 018°25'3 5.5
2017-Aug-10 04:30N 59°24' E 018°21'0 0.0
2017-Aug-10 04:00N 59°24' E 018°21'0 0.0
2017-Aug-10 03:30N 59°24' E 018°21'0 0.0
2017-Aug-10 03:00N 59°24' E 018°21'0 0.0
2017-Aug-10 02:30N 59°24' E 018°21'0 0.0
2017-Aug-10 02:00N 59°24' E 018°21'0 0.0
2017-Aug-10 01:30N 59°24' E 018°21'0 0.0
2017-Aug-10 01:00N 59°24' E 018°21'0 0.0
2017-Aug-10 00:30N 59°24' E 018°21'0 0.0
2017-Aug-10 00:00N 59°24' E 018°21'0 0.0
2017-Aug-09 23:30N 59°24' E 018°21'0 0.0
2017-Aug-09 23:00N 59°24' E 018°21'0 0.0
2017-Aug-09 22:30N 59°24' E 018°21'0 0.0
2017-Aug-09 22:00N 59°24' E 018°21'0 0.0
2017-Aug-09 21:30N 59°24' E 018°21'0 0.0
2017-Aug-09 21:00N 59°24' E 018°21'0 0.0
2017-Aug-09 20:30N 59°24' E 018°21'0 0.0
2017-Aug-09 20:00N 59°24' E 018°21'0 0.0
2017-Aug-09 19:30N 59°24' E 018°21'0 0.0
2017-Aug-09 19:00N 59°24' E 018°21'0 0.0
2017-Aug-09 18:30N 59°24' E 018°21'0 0.0
2017-Aug-09 17:59N 59°24' E 018°21'1 1.6
2017-Aug-09 17:31N 59°24' E 018°23'3 5.1
2017-Aug-09 17:00N 59°21' E 018°25'2 4.4
2017-Aug-09 16:30N 59°23' E 018°26'3 5.1
2017-Aug-09 16:00N 59°24' E 018°21'2 4.2
2017-Aug-09 15:30N 59°23' E 018°24'1 3.0
2017-Aug-09 15:00N 59°22' E 018°22'2 3.4
2017-Aug-09 14:30N 59°23' E 018°18'2 3.7
2017-Aug-09 13:58N 59°24' E 018°21'2 4.6
2017-Aug-09 13:29N 59°23' E 018°25'1 2.1
2017-Aug-09 12:58N 59°22' E 018°27'3 5.7
2017-Aug-09 12:30N 59°24' E 018°22'2 2.8
2017-Aug-09 11:58N 59°23' E 018°25'2 4.9
2017-Aug-09 11:31N 59°25' E 018°22'1 1.8
2017-Aug-09 11:00N 59°24' E 018°21'0 0.0
2017-Aug-09 10:31N 59°24' E 018°21'0 0.0
2017-Aug-09 10:00N 59°24' E 018°21'0 0.0
2017-Aug-09 09:31N 59°24' E 018°21'0 0.0
2017-Aug-09 09:00N 59°24' E 018°21'0 0.0
2017-Aug-09 08:30N 59°24' E 018°21'0 0.0
2017-Aug-09 08:00N 59°24' E 018°21'2 3.2
2017-Aug-09 07:30N 59°23' E 018°24'2 3.6
2017-Aug-09 07:00N 59°21' E 018°25'2 4.2
2017-Aug-09 06:30N 59°23' E 018°24'2 3.1
2017-Aug-09 06:00N 59°24' E 018°21'2 3.7
2017-Aug-09 05:30N 59°22' E 018°22'2 4.3
2017-Aug-09 05:00N 59°23' E 018°26'3 5.5
2017-Aug-09 04:30N 59°24' E 018°21'0 0.0
2017-Aug-09 04:00N 59°24' E 018°21'0 0.0
2017-Aug-09 03:30N 59°24' E 018°21'0 0.0
2017-Aug-09 03:00N 59°24' E 018°21'0 0.0
2017-Aug-09 02:30N 59°24' E 018°21'0 0.0
2017-Aug-09 02:00N 59°24' E 018°21'0 0.0
2017-Aug-09 01:30N 59°24' E 018°21'0 0.0
2017-Aug-09 01:00N 59°24' E 018°21'0 0.0
2017-Aug-09 00:30N 59°24' E 018°21'0 0.0
2017-Aug-09 00:00N 59°24' E 018°21'0 0.0
2017-Aug-08 23:30N 59°24' E 018°21'0 0.0
2017-Aug-08 23:00N 59°24' E 018°21'0 0.0
2017-Aug-08 22:29N 59°24' E 018°21'0 0.0
2017-Aug-08 22:00N 59°24' E 018°21'0 0.0
2017-Aug-08 21:30N 59°24' E 018°21'0 0.0
2017-Aug-08 21:00N 59°24' E 018°21'0 0.0
2017-Aug-08 20:30N 59°24' E 018°21'0 0.0
2017-Aug-08 20:00N 59°24' E 018°21'0 0.0
2017-Aug-08 19:30N 59°24' E 018°21'0 0.0
2017-Aug-08 19:01N 59°24' E 018°21'0 0.0
2017-Aug-08 18:30N 59°24' E 018°21'0 0.0
2017-Aug-08 18:00N 59°24' E 018°21'1 2.1
2017-Aug-08 17:30N 59°24' E 018°23'2 4.7
2017-Aug-08 17:00N 59°21' E 018°25'2 3.7
2017-Aug-08 16:30N 59°23' E 018°26'3 5.4
2017-Aug-08 16:00N 59°24' E 018°21'3 5.2
2017-Aug-08 15:29N 59°23' E 018°26'2 4.3
2017-Aug-08 15:00N 59°22' E 018°22'3 5.8
2017-Aug-08 14:30N 59°22' E 018°16'4 7.5
2017-Aug-08 14:00N 59°24' E 018°23'2 4.1
2017-Aug-08 13:30N 59°23' E 018°26'1 1.3
2017-Aug-08 13:01N 59°22' E 018°26'3 5.8
2017-Aug-08 12:29N 59°24' E 018°22'2 3.9
2017-Aug-08 11:59N 59°23' E 018°25'2 4.9
2017-Aug-08 11:30N 59°25' E 018°22'1 1.4
2017-Aug-08 11:00N 59°24' E 018°22'0 0.0
2017-Aug-08 10:30N 59°24' E 018°22'0 0.0
2017-Aug-08 10:00N 59°24' E 018°22'0 0.0
2017-Aug-08 09:30N 59°24' E 018°22'0 0.0
2017-Aug-08 09:00N 59°24' E 018°22'0 0.0
2017-Aug-08 08:30N 59°24' E 018°22'0 0.9
2017-Aug-08 08:00N 59°24' E 018°21'1 1.7
2017-Aug-08 07:29N 59°24' E 018°23'2 2.2
2017-Aug-08 06:39N 59°23' E 018°26'1 8.1
2017-Aug-08 06:30N 59°23' E 018°24'2 3.0
2017-Aug-08 06:00N 59°24' E 018°21'2 3.7
2017-Aug-08 05:30N 59°22' E 018°21'2 4.8
2017-Aug-08 05:00N 59°23' E 018°26'3 5.8
2017-Aug-08 04:30N 59°24' E 018°21'0 0.0
2017-Aug-08 04:00N 59°24' E 018°21'0 0.0
2017-Aug-08 03:30N 59°24' E 018°21'0 0.0
2017-Aug-08 03:00N 59°24' E 018°21'0 0.0
2017-Aug-08 02:30N 59°24' E 018°21'0 0.0
2017-Aug-08 02:00N 59°24' E 018°21'0 0.0
2017-Aug-08 01:30N 59°24' E 018°21'0 0.0
2017-Aug-08 01:00N 59°24' E 018°21'0 0.0
2017-Aug-08 00:30N 59°24' E 018°21'0 0.0
2017-Aug-08 00:00N 59°24' E 018°21'0 0.0
2017-Aug-07 23:30N 59°24' E 018°21'0 0.0
2017-Aug-07 23:00N 59°24' E 018°21'0 0.0
2017-Aug-07 22:30N 59°24' E 018°21'0 0.0
2017-Aug-07 22:00N 59°24' E 018°21'0 0.0
2017-Aug-07 21:30N 59°24' E 018°21'0 0.0
2017-Aug-07 20:59N 59°24' E 018°21'0 0.0
2017-Aug-07 20:30N 59°24' E 018°21'0 0.0
2017-Aug-07 20:00N 59°24' E 018°21'0 0.0
2017-Aug-07 19:30N 59°24' E 018°21'0 0.0
2017-Aug-07 18:59N 59°24' E 018°21'0 0.0
2017-Aug-07 18:30N 59°24' E 018°21'0 0.0
2017-Aug-07 18:00N 59°24' E 018°21'1 1.9
2017-Aug-07 17:30N 59°24' E 018°23'2 1.7
2017-Aug-07 16:30N 59°23' E 018°26'3 5.3
2017-Aug-07 16:00N 59°24' E 018°21'3 5.9
2017-Aug-07 15:31N 59°23' E 018°26'2 4.6
2017-Aug-07 15:00N 59°22' E 018°22'2 4.5
2017-Aug-07 14:30N 59°23' E 018°17'3 4.9
2017-Aug-07 13:59N 59°24' E 018°21'2 4.6
2017-Aug-07 13:30N 59°23' E 018°25'1 2.4
2017-Aug-07 12:58N 59°22' E 018°26'3 6.2
2017-Aug-07 12:30N 59°24' E 018°22'0 0.7
2017-Aug-07 12:00N 59°24' E 018°23'2 3.3
2017-Aug-07 11:30N 59°25' E 018°22'1 2.5
2017-Aug-07 11:00N 59°24' E 018°21'0 0.0
2017-Aug-07 10:30N 59°24' E 018°21'0 0.0
2017-Aug-07 10:00N 59°24' E 018°21'0 0.0
2017-Aug-07 09:30N 59°24' E 018°21'0 0.0
2017-Aug-07 09:00N 59°24' E 018°21'0 0.0
2017-Aug-07 08:30N 59°24' E 018°21'0 0.1
2017-Aug-07 08:00N 59°24' E 018°21'1 1.7
2017-Aug-07 07:30N 59°24' E 018°23'1 1.4
2017-Aug-07 06:35N 59°23' E 018°25'1 6.6
2017-Aug-07 06:30N 59°23' E 018°24'2 3.0
2017-Aug-07 06:00N 59°24' E 018°21'  
Track history (hours):
 
Tides and Currents Weather Stations Pressure Air Temp Water Temp Dewpoint Dewpoint Depression Visibility Wind Speed Wind Dir Waves Ship Positions

Silvero

Last reported at 2017-Aug-17 06:00 UTC. Time now 2017-Aug-17 06:09 UTC.
Position N 59°24' E 018°21'.

Length 22 m.

Type: Passenger vessel. MMSI: 265568520.

Date/timePositionNaut miles runAvg speedWind from/ knotsBaromVisibWave heightAir tempDewpointWater temp
2017-Aug-17 06:00N 59°24' E 018°21'2 3.7
2017-Aug-17 05:30N 59°22' E 018°21'2 3.4
2017-Aug-17 04:56N 59°23' E 018°25'3 5.9
2017-Aug-17 04:30N 59°24' E 018°21'0 0.0
2017-Aug-17 04:00N 59°24' E 018°21'0 0.0
2017-Aug-17 03:30N 59°24' E 018°21'0 0.0
2017-Aug-17 03:00N 59°24' E 018°21'0 0.0
2017-Aug-17 02:30N 59°24' E 018°21'0 0.0
2017-Aug-17 02:00N 59°24' E 018°21'0 0.0
2017-Aug-17 01:30N 59°24' E 018°21'0 0.0
2017-Aug-17 01:00N 59°24' E 018°21'0 0.0
2017-Aug-17 00:30N 59°24' E 018°21'0 0.0
2017-Aug-17 00:00N 59°24' E 018°21'0 0.0
2017-Aug-16 23:30N 59°24' E 018°21'0 0.0
2017-Aug-16 23:00N 59°24' E 018°21'0 0.0
2017-Aug-16 22:30N 59°24' E 018°21'0 0.0
2017-Aug-16 22:00N 59°24' E 018°21'0 0.0
2017-Aug-16 21:30N 59°24' E 018°21'0 0.0
2017-Aug-16 21:00N 59°24' E 018°21'0 0.0
2017-Aug-16 20:30N 59°24' E 018°21'0 0.0
2017-Aug-16 20:00N 59°24' E 018°21'0 0.0
2017-Aug-16 19:29N 59°24' E 018°21'0 0.0
2017-Aug-16 19:00N 59°24' E 018°21'0 0.0
2017-Aug-16 18:30N 59°24' E 018°21'0 0.0
2017-Aug-16 18:00N 59°24' E 018°21'1 2.5
2017-Aug-16 17:30N 59°23' E 018°23'2 2.8
2017-Aug-16 16:45N 59°22' E 018°26'2 6.9
2017-Aug-16 16:30N 59°23' E 018°24'2 3.5
2017-Aug-16 16:00N 59°24' E 018°21'3 5.5
2017-Aug-16 15:23N 59°22' E 018°27'2 6.5
2017-Aug-16 15:00N 59°22' E 018°22'3 6.6
2017-Aug-16 14:30N 59°22' E 018°15'5 8.9
2017-Aug-16 14:00N 59°24' E 018°24'1 2.2
2017-Aug-16 13:27N 59°23' E 018°26'0 0.3
2017-Aug-16 12:47N 59°23' E 018°26'2 7.0
2017-Aug-16 12:30N 59°24' E 018°23'1 1.0
2017-Aug-16 12:00N 59°24' E 018°23'2 4.6
2017-Aug-16 11:30N 59°25' E 018°21'1 2.8
2017-Aug-16 11:00N 59°24' E 018°21'0 0.0
2017-Aug-16 10:30N 59°24' E 018°21'0 0.0
2017-Aug-16 10:00N 59°24' E 018°21'0 0.0
2017-Aug-16 09:30N 59°24' E 018°21'0 0.0
2017-Aug-16 09:00N 59°24' E 018°21'0 0.0
2017-Aug-16 08:30N 59°24' E 018°21'0 0.0
2017-Aug-16 08:00N 59°24' E 018°21'1 2.8
2017-Aug-16 07:28N 59°23' E 018°24'1 1.7
2017-Aug-16 06:45N 59°23' E 018°26'1 5.1
2017-Aug-16 06:29N 59°23' E 018°23'1 2.7
2017-Aug-16 06:00N 59°24' E 018°21'2 3.7
2017-Aug-16 05:30N 59°22' E 018°21'2 4.8
2017-Aug-16 05:00N 59°22' E 018°26'3 6.1
2017-Aug-16 04:30N 59°24' E 018°21'0 0.0
2017-Aug-16 04:00N 59°24' E 018°21'0 0.0
2017-Aug-16 03:30N 59°24' E 018°21'0 0.0
2017-Aug-16 03:00N 59°24' E 018°21'0 0.0
2017-Aug-16 02:30N 59°24' E 018°21'0 0.0
2017-Aug-16 02:00N 59°24' E 018°21'0 0.0
2017-Aug-16 01:30N 59°24' E 018°21'0 0.0
2017-Aug-16 01:00N 59°24' E 018°21'0 0.0
2017-Aug-16 00:30N 59°24' E 018°21'0 0.0
2017-Aug-16 00:00N 59°24' E 018°21'0 0.0
2017-Aug-15 23:30N 59°24' E 018°21'0 0.0
2017-Aug-15 23:00N 59°24' E 018°21'0 0.0
2017-Aug-15 22:30N 59°24' E 018°21'0 0.0
2017-Aug-15 22:00N 59°24' E 018°21'0 0.0
2017-Aug-15 21:30N 59°24' E 018°21'0 0.0
2017-Aug-15 21:00N 59°24' E 018°21'0 0.0
2017-Aug-15 20:30N 59°24' E 018°21'0 0.0
2017-Aug-15 20:00N 59°24' E 018°21'0 0.0
2017-Aug-15 19:30N 59°24' E 018°21'0 0.0
2017-Aug-15 19:00N 59°24' E 018°21'0 0.0
2017-Aug-15 18:30N 59°24' E 018°21'0 0.0
2017-Aug-15 17:59N 59°24' E 018°21'2 3.2
2017-Aug-15 17:30N 59°23' E 018°24'2 3.8
2017-Aug-15 17:00N 59°21' E 018°25'2 4.0
2017-Aug-15 16:29N 59°23' E 018°25'2 4.6
2017-Aug-15 16:00N 59°24' E 018°21'3 5.8
2017-Aug-15 15:27N 59°22' E 018°26'3 6.1
2017-Aug-15 15:01N 59°22' E 018°21'3 5.2
2017-Aug-15 14:31N 59°22' E 018°16'4 8.7
2017-Aug-15 14:00N 59°24' E 018°24'1 1.9
2017-Aug-15 13:29N 59°23' E 018°25'1 0.7
2017-Aug-15 12:47N 59°23' E 018°24'1 5.1
2017-Aug-15 12:30N 59°24' E 018°22'2 3.9
2017-Aug-15 11:58N 59°23' E 018°25'2 5.2
2017-Aug-15 11:30N 59°25' E 018°22'1 1.7
2017-Aug-15 11:00N 59°24' E 018°21'0 0.9
2017-Aug-15 10:30N 59°24' E 018°22'0 0.0
2017-Aug-15 10:00N 59°24' E 018°22'0 0.0
2017-Aug-15 09:30N 59°24' E 018°22'0 0.0
2017-Aug-15 09:00N 59°24' E 018°22'0 0.0
2017-Aug-15 08:30N 59°24' E 018°22'0 0.9
2017-Aug-15 08:00N 59°24' E 018°21'1 2.6
2017-Aug-15 07:28N 59°23' E 018°23'2 2.1
2017-Aug-15 06:44N 59°23' E 018°26'2 7.1
2017-Aug-15 06:30N 59°23' E 018°23'1 2.5
2017-Aug-15 06:00N 59°24' E 018°21'2 3.3
2017-Aug-15 05:30N 59°22' E 018°22'2 3.3
2017-Aug-15 04:56N 59°23' E 018°25'3 5.5
2017-Aug-15 04:29N 59°24' E 018°21'0 0.0
2017-Aug-15 04:00N 59°24' E 018°21'0 0.0
2017-Aug-15 03:30N 59°24' E 018°21'0 0.0
2017-Aug-15 03:00N 59°24' E 018°21'0 0.0
2017-Aug-15 02:30N 59°24' E 018°21'0 0.0
2017-Aug-15 02:00N 59°24' E 018°21'0 0.0
2017-Aug-15 01:30N 59°24' E 018°21'0 0.0
2017-Aug-15 01:00N 59°24' E 018°21'0 0.0
2017-Aug-15 00:30N 59°24' E 018°21'0 0.0
2017-Aug-15 00:00N 59°24' E 018°21'0 0.0
2017-Aug-14 23:30N 59°24' E 018°21'0 0.0
2017-Aug-14 23:00N 59°24' E 018°21'0 0.0
2017-Aug-14 22:31N 59°24' E 018°21'0 0.0
2017-Aug-14 22:00N 59°24' E 018°21'0 0.0
2017-Aug-14 21:30N 59°24' E 018°21'0 0.0
2017-Aug-14 21:00N 59°24' E 018°21'0 0.0
2017-Aug-14 20:30N 59°24' E 018°21'0 0.0
2017-Aug-14 20:00N 59°24' E 018°21'0 0.0
2017-Aug-14 19:30N 59°24' E 018°21'0 0.0
2017-Aug-14 19:00N 59°24' E 018°21'0 0.0
2017-Aug-14 18:30N 59°24' E 018°21'0 0.0
2017-Aug-14 18:01N 59°24' E 018°21'2 3.9
2017-Aug-14 17:30N 59°23' E 018°24'1 3.0
2017-Aug-14 17:00N 59°21' E 018°25'2 4.1
2017-Aug-14 16:30N 59°23' E 018°25'2 4.1
2017-Aug-14 16:01N 59°24' E 018°21'3 5.4
2017-Aug-14 15:30N 59°23' E 018°26'2 4.0
2017-Aug-14 15:01N 59°23' E 018°22'3 6.5
2017-Aug-14 14:30N 59°22' E 018°16'4 7.8
2017-Aug-14 14:00N 59°24' E 018°23'1 2.1
2017-Aug-14 13:30N 59°23' E 018°25'2 3.3
2017-Aug-14 12:59N 59°22' E 018°26'3 5.6
2017-Aug-14 12:30N 59°24' E 018°23'0 0.6
2017-Aug-14 12:00N 59°24' E 018°23'1 2.8
2017-Aug-14 11:31N 59°25' E 018°22'1 1.9
2017-Aug-14 11:00N 59°24' E 018°21'0 0.0
2017-Aug-14 10:30N 59°24' E 018°21'0 0.0
2017-Aug-14 10:00N 59°24' E 018°21'0 0.0
2017-Aug-14 09:30N 59°24' E 018°21'0 0.0
2017-Aug-14 09:00N 59°24' E 018°21'0 0.0
2017-Aug-14 08:30N 59°24' E 018°21'0 0.0
2017-Aug-14 08:00N 59°24' E 018°21'1 1.7
2017-Aug-14 07:30N 59°24' E 018°23'2 5.0
2017-Aug-14 07:00N 59°21' E 018°25'2 4.4
2017-Aug-14 06:30N 59°23' E 018°24'1 2.8
2017-Aug-14 06:00N 59°24' E 018°21'2 3.8
2017-Aug-14 05:31N 59°22' E 018°22'2 4.9
2017-Aug-14 05:00N 59°22' E 018°27'3 6.4
2017-Aug-14 04:30N 59°24' E 018°21'0 0.0
2017-Aug-14 04:00N 59°24' E 018°21'0 0.0
2017-Aug-14 03:30N 59°24' E 018°21'0 0.0
2017-Aug-14 03:00N 59°24' E 018°21'0 0.0
2017-Aug-14 02:30N 59°24' E 018°21'0 0.0
2017-Aug-14 02:00N 59°24' E 018°21'0 0.0
2017-Aug-14 01:30N 59°24' E 018°21'0 0.0
2017-Aug-14 01:00N 59°24' E 018°21'0 0.0
2017-Aug-14 00:30N 59°24' E 018°21'0 0.0
2017-Aug-14 00:00N 59°24' E 018°21'0 0.0
2017-Aug-13 23:30N 59°24' E 018°21'0 0.0
2017-Aug-13 23:00N 59°24' E 018°21'0 0.0
2017-Aug-13 22:30N 59°24' E 018°21'0 0.0
2017-Aug-13 22:00N 59°24' E 018°21'0 0.0
2017-Aug-13 21:29N 59°24' E 018°21'0 0.0
2017-Aug-13 21:00N 59°24' E 018°21'0 0.0
2017-Aug-13 20:30N 59°24' E 018°21'0 0.0
2017-Aug-13 20:00N 59°24' E 018°21'0 0.0
2017-Aug-13 19:30N 59°24' E 018°21'0 0.0
2017-Aug-13 19:00N 59°24' E 018°21'0 0.0
2017-Aug-13 18:30N 59°24' E 018°21'0 0.0
2017-Aug-13 18:00N 59°24' E 018°21'3 6.6
2017-Aug-13 17:29N 59°22' E 018°27'1 0.9
2017-Aug-13 16:57N 59°22' E 018°26'3 6.2
2017-Aug-13 16:29N 59°24' E 018°22'0 0.9
2017-Aug-13 16:00N 59°23' E 018°23'2 1.7
2017-Aug-13 14:44N 59°22' E 018°26'1 5.4
2017-Aug-13 14:30N 59°23' E 018°25'2 4.4
2017-Aug-13 14:00N 59°24' E 018°21'0 0.0
2017-Aug-13 13:30N 59°24' E 018°21'1 2.3
2017-Aug-13 12:59N 59°25' E 018°21'4 8.7
2017-Aug-13 12:30N 59°27' E 018°28'0 0.8
2017-Aug-13 11:58N 59°27' E 018°29'4 8.0
2017-Aug-13 11:30N 59°25' E 018°22'1 2.7
2017-Aug-13 11:01N 59°24' E 018°21'0 0.0
2017-Aug-13 10:30N 59°24' E 018°21'0 0.0
2017-Aug-13 10:00N 59°24' E 018°21'2 3.1
2017-Aug-13 09:30N 59°23' E 018°24'1 3.0
2017-Aug-13 09:00N 59°24' E 018°21'0 0.1
2017-Aug-13 08:30N 59°24' E 018°21'1 3.0
2017-Aug-13 08:00N 59°23' E 018°24'2 2.6
2017-Aug-13 07:19N 59°22' E 018°26'1 4.1
2017-Aug-13 06:59N 59°23' E 018°24'2 3.9
2017-Aug-13 06:30N 59°24' E 018°21'0 0.0
2017-Aug-13 05:59N 59°24' E 018°21'0 0.0
2017-Aug-13 05:30N 59°24' E 018°21'0 0.0
2017-Aug-13 05:00N 59°24' E 018°21'0 0.0
2017-Aug-13 04:30N 59°24' E 018°21'0 0.0
2017-Aug-13 04:00N 59°24' E 018°21'0 0.0
2017-Aug-13 03:30N 59°24' E 018°21'0 0.0
2017-Aug-13 02:58N 59°24' E 018°21'0 0.0
2017-Aug-13 02:30N 59°24' E 018°21'0 0.0
2017-Aug-13 01:59N 59°24' E 018°21'0 0.0
2017-Aug-13 01:30N 59°24' E 018°21'0 0.0
2017-Aug-13 01:00N 59°24' E 018°21'0 0.0
2017-Aug-13 00:30N 59°24' E 018°21'0 0.0
2017-Aug-13 00:00N 59°24' E 018°21'0 0.0
2017-Aug-12 23:30N 59°24' E 018°21'0 0.0
2017-Aug-12 23:00N 59°24' E 018°21'0 0.0
2017-Aug-12 22:30N 59°24' E 018°21'0 0.0
2017-Aug-12 19:37N 59°24' E 018°21'0 0.0
2017-Aug-12 19:29N 59°24' E 018°21'0 0.0
2017-Aug-12 18:57N 59°24' E 018°21'0 0.0
2017-Aug-12 18:30N 59°24' E 018°21'0 0.0
2017-Aug-12 17:58N 59°24' E 018°21'0 0.0
2017-Aug-12 17:30N 59°24' E 018°21'1 2.0
2017-Aug-12 17:00N 59°25' E 018°22'4 7.7
2017-Aug-12 16:30N 59°27' E 018°29'1 1.4
2017-Aug-12 15:59N 59°28' E 018°29'4 8.8
2017-Aug-12 15:30N 59°25' E 018°22'2 4.0
2017-Aug-12 14:59N 59°24' E 018°24'0 0.9
2017-Aug-12 14:28N 59°23' E 018°24'2 3.8
2017-Aug-12 14:00N 59°24' E 018°21'1 2.4
2017-Aug-12 13:30N 59°23' E 018°23'2 3.5
2017-Aug-12 12:52N 59°21' E 018°25'2 4.9
2017-Aug-12 12:27N 59°23' E 018°25'2 3.5
2017-Aug-12 12:00N 59°24' E 018°22'0 0.3
2017-Aug-12 11:30N 59°24' E 018°22'0 0.0
2017-Aug-12 11:00N 59°24' E 018°22'1 1.4
2017-Aug-12 10:30N 59°25' E 018°22'1 1.8
2017-Aug-12 10:00N 59°24' E 018°21'2 3.8
2017-Aug-12 09:27N 59°23' E 018°25'2 4.9
2017-Aug-12 09:00N 59°24' E 018°22'0 0.3
2017-Aug-12 08:30N 59°24' E 018°21'0 0.7
2017-Aug-12 08:00N 59°24' E 018°22'3 6.2
2017-Aug-12 07:30N 59°21' E 018°25'3 5.8
2017-Aug-12 07:00N 59°24' E 018°22'0 0.7
2017-Aug-12 06:30N 59°24' E 018°21'0 0.0
2017-Aug-12 06:00N 59°24' E 018°21'0 0.0
2017-Aug-12 05:30N 59°24' E 018°21'0 0.0
2017-Aug-12 05:00N 59°24' E 018°21'0 0.0
2017-Aug-12 04:30N 59°24' E 018°21'0 0.0
2017-Aug-12 04:00N 59°24' E 018°21'0 0.0
2017-Aug-12 03:30N 59°24' E 018°21'0 0.0
2017-Aug-12 03:00N 59°24' E 018°21'0 0.0
2017-Aug-12 02:30N 59°24' E 018°21'0 0.0
2017-Aug-12 02:00N 59°24' E 018°21'0 0.0
2017-Aug-12 01:30N 59°24' E 018°21'0 0.0
2017-Aug-12 01:00N 59°24' E 018°21'0 0.0
2017-Aug-12 00:30N 59°24' E 018°21'0 0.0
2017-Aug-12 00:00N 59°24' E 018°21'0 0.0
2017-Aug-11 23:30N 59°24' E 018°21'0 0.0
2017-Aug-11 23:00N 59°24' E 018°21'0 0.0
2017-Aug-11 22:30N 59°24' E 018°21'0 0.0
2017-Aug-11 22:00N 59°24' E 018°21'0 0.0
2017-Aug-11 21:30N 59°24' E 018°21'0 0.0
2017-Aug-11 21:00N 59°24' E 018°21'0 0.0
2017-Aug-11 20:30N 59°24' E 018°21'0 0.0
2017-Aug-11 20:00N 59°24' E 018°21'0 0.0
2017-Aug-11 19:30N 59°24' E 018°21'0 0.0
2017-Aug-11 19:00N 59°24' E 018°21'0 0.0
2017-Aug-11 18:30N 59°24' E 018°21'0 0.0
2017-Aug-11 18:00N 59°24' E 018°21'1 3.0
2017-Aug-11 17:30N 59°23' E 018°24'2 3.9
2017-Aug-11 17:00N 59°21' E 018°25'2 3.9
2017-Aug-11 16:28N 59°23' E 018°26'3 5.4
2017-Aug-11 16:00N 59°24' E 018°21'3 5.7
2017-Aug-11 15:30N 59°23' E 018°26'2 4.5
2017-Aug-11 14:59N 59°22' E 018°22'1 1.5
2017-Aug-11 14:00N 59°24' E 018°23'2 4.0
2017-Aug-11 13:31N 59°23' E 018°26'0 0.3
2017-Aug-11 12:55N 59°23' E 018°26'2 5.1
2017-Aug-11 12:30N 59°24' E 018°23'2 3.4
2017-Aug-11 12:00N 59°23' E 018°26'2 4.9
2017-Aug-11 11:30N 59°25' E 018°22'1 1.6
2017-Aug-11 11:00N 59°24' E 018°21'0 0.0
2017-Aug-11 10:30N 59°24' E 018°21'0 0.0
2017-Aug-11 10:00N 59°24' E 018°21'2 3.1
2017-Aug-11 09:30N 59°26' E 018°22'4 6.0
2017-Aug-11 08:52N 59°25' E 018°30'2 4.8
2017-Aug-11 08:27N 59°26' E 018°26'3 6.3
2017-Aug-11 07:59N 59°24' E 018°21'1 2.6
2017-Aug-11 07:30N 59°23' E 018°23'2 3.5
2017-Aug-11 06:52N 59°22' E 018°27'2 5.6
2017-Aug-11 06:29N 59°23' E 018°23'1 2.6
2017-Aug-11 06:00N 59°24' E 018°21'2 4.3
2017-Aug-11 05:30N 59°22' E 018°21'2 4.0
2017-Aug-11 04:56N 59°23' E 018°25'2 5.6
2017-Aug-11 04:30N 59°24' E 018°21'0 0.0
2017-Aug-11 04:01N 59°24' E 018°21'0 0.0
2017-Aug-11 03:30N 59°24' E 018°21'0 0.0
2017-Aug-11 03:00N 59°24' E 018°21'0 0.0
2017-Aug-11 02:30N 59°24' E 018°21'0 0.0
2017-Aug-11 02:01N 59°24' E 018°21'0 0.0
2017-Aug-11 01:30N 59°24' E 018°21'0 0.0
2017-Aug-11 01:00N 59°24' E 018°21'0 0.0
2017-Aug-11 00:30N 59°24' E 018°21'0 0.0
2017-Aug-11 00:00N 59°24' E 018°21'0 0.0
2017-Aug-10 23:30N 59°24' E 018°21'0 0.0
2017-Aug-10 23:00N 59°24' E 018°21'0 0.0
2017-Aug-10 22:31N 59°24' E 018°21'0 0.0
2017-Aug-10 22:00N 59°24' E 018°21'0 0.0
2017-Aug-10 21:30N 59°24' E 018°21'0 0.0
2017-Aug-10 21:00N 59°24' E 018°21'0 0.0
2017-Aug-10 20:30N 59°24' E 018°21'0 0.0
2017-Aug-10 20:00N 59°24' E 018°21'0 0.0
2017-Aug-10 19:30N 59°24' E 018°21'0 0.0
2017-Aug-10 19:00N 59°24' E 018°21'0 0.0
2017-Aug-10 18:31N 59°24' E 018°21'0 0.0
2017-Aug-10 18:00N 59°24' E 018°21'1 2.2
2017-Aug-10 17:30N 59°23' E 018°23'2 2.5
2017-Aug-10 16:39N 59°22' E 018°26'1 3.9
2017-Aug-10 16:26N 59°23' E 018°26'3 6.2
2017-Aug-10 16:00N 59°24' E 018°21'3 5.9
2017-Aug-10 15:26N 59°22' E 018°27'2 5.8
2017-Aug-10 15:00N 59°22' E 018°22'3 5.7
2017-Aug-10 14:31N 59°22' E 018°16'3 6.1
2017-Aug-10 13:58N 59°24' E 018°21'2 4.9
2017-Aug-10 13:30N 59°23' E 018°26'0 0.3
2017-Aug-10 12:45N 59°23' E 018°26'2 7.1
2017-Aug-10 12:30N 59°24' E 018°23'1 2.5
2017-Aug-10 12:00N 59°23' E 018°25'2 4.1
2017-Aug-10 11:30N 59°25' E 018°22'1 1.7
2017-Aug-10 11:00N 59°24' E 018°21'0 0.0
2017-Aug-10 10:30N 59°24' E 018°21'0 0.0
2017-Aug-10 10:00N 59°24' E 018°21'0 0.0
2017-Aug-10 09:30N 59°24' E 018°21'0 0.0
2017-Aug-10 09:00N 59°24' E 018°21'0 0.0
2017-Aug-10 08:30N 59°24' E 018°21'0 0.1
2017-Aug-10 08:00N 59°24' E 018°21'1 1.1
2017-Aug-10 07:30N 59°24' E 018°22'3 3.9
2017-Aug-10 06:48N 59°22' E 018°26'2 6.9
2017-Aug-10 06:30N 59°23' E 018°24'1 2.8
2017-Aug-10 06:00N 59°24' E 018°21'2 3.3
2017-Aug-10 05:31N 59°22' E 018°22'2 3.4
2017-Aug-10 04:58N 59°23' E 018°25'3 5.5
2017-Aug-10 04:30N 59°24' E 018°21'0 0.0
2017-Aug-10 04:00N 59°24' E 018°21'0 0.0
2017-Aug-10 03:30N 59°24' E 018°21'0 0.0
2017-Aug-10 03:00N 59°24' E 018°21'0 0.0
2017-Aug-10 02:30N 59°24' E 018°21'0 0.0
2017-Aug-10 02:00N 59°24' E 018°21'0 0.0
2017-Aug-10 01:30N 59°24' E 018°21'0 0.0
2017-Aug-10 01:00N 59°24' E 018°21'0 0.0
2017-Aug-10 00:30N 59°24' E 018°21'0 0.0
2017-Aug-10 00:00N 59°24' E 018°21'0 0.0
2017-Aug-09 23:30N 59°24' E 018°21'0 0.0
2017-Aug-09 23:00N 59°24' E 018°21'0 0.0
2017-Aug-09 22:30N 59°24' E 018°21'0 0.0
2017-Aug-09 22:00N 59°24' E 018°21'0 0.0
2017-Aug-09 21:30N 59°24' E 018°21'0 0.0
2017-Aug-09 21:00N 59°24' E 018°21'0 0.0
2017-Aug-09 20:30N 59°24' E 018°21'0 0.0
2017-Aug-09 20:00N 59°24' E 018°21'0 0.0
2017-Aug-09 19:30N 59°24' E 018°21'0 0.0
2017-Aug-09 19:00N 59°24' E 018°21'0 0.0
2017-Aug-09 18:30N 59°24' E 018°21'0 0.0
2017-Aug-09 17:59N 59°24' E 018°21'1 1.6
2017-Aug-09 17:31N 59°24' E 018°23'3 5.1
2017-Aug-09 17:00N 59°21' E 018°25'2 4.4
2017-Aug-09 16:30N 59°23' E 018°26'3 5.1
2017-Aug-09 16:00N 59°24' E 018°21'2 4.2
2017-Aug-09 15:30N 59°23' E 018°24'1 3.0
2017-Aug-09 15:00N 59°22' E 018°22'2 3.4
2017-Aug-09 14:30N 59°23' E 018°18'2 3.7
2017-Aug-09 13:58N 59°24' E 018°21'2 4.6
2017-Aug-09 13:29N 59°23' E 018°25'1 2.1
2017-Aug-09 12:58N 59°22' E 018°27'3 5.7
2017-Aug-09 12:30N 59°24' E 018°22'2 2.8
2017-Aug-09 11:58N 59°23' E 018°25'2 4.9
2017-Aug-09 11:31N 59°25' E 018°22'1 1.8
2017-Aug-09 11:00N 59°24' E 018°21'0 0.0
2017-Aug-09 10:31N 59°24' E 018°21'0 0.0
2017-Aug-09 10:00N 59°24' E 018°21'0 0.0
2017-Aug-09 09:31N 59°24' E 018°21'0 0.0
2017-Aug-09 09:00N 59°24' E 018°21'0 0.0
2017-Aug-09 08:30N 59°24' E 018°21'0 0.0
2017-Aug-09 08:00N 59°24' E 018°21'2 3.2
2017-Aug-09 07:30N 59°23' E 018°24'2 3.6
2017-Aug-09 07:00N 59°21' E 018°25'2 4.2
2017-Aug-09 06:30N 59°23' E 018°24'2 3.1
2017-Aug-09 06:00N 59°24' E 018°21'2 3.7
2017-Aug-09 05:30N 59°22' E 018°22'2 4.3
2017-Aug-09 05:00N 59°23' E 018°26'3 5.5
2017-Aug-09 04:30N 59°24' E 018°21'0 0.0
2017-Aug-09 04:00N 59°24' E 018°21'0 0.0
2017-Aug-09 03:30N 59°24' E 018°21'0 0.0
2017-Aug-09 03:00N 59°24' E 018°21'0 0.0
2017-Aug-09 02:30N 59°24' E 018°21'0 0.0
2017-Aug-09 02:00N 59°24' E 018°21'0 0.0
2017-Aug-09 01:30N 59°24' E 018°21'0 0.0
2017-Aug-09 01:00N 59°24' E 018°21'0 0.0
2017-Aug-09 00:30N 59°24' E 018°21'0 0.0
2017-Aug-09 00:00N 59°24' E 018°21'0 0.0
2017-Aug-08 23:30N 59°24' E 018°21'0 0.0
2017-Aug-08 23:00N 59°24' E 018°21'0 0.0
2017-Aug-08 22:29N 59°24' E 018°21'0 0.0
2017-Aug-08 22:00N 59°24' E 018°21'0 0.0
2017-Aug-08 21:30N 59°24' E 018°21'0 0.0
2017-Aug-08 21:00N 59°24' E 018°21'0 0.0
2017-Aug-08 20:30N 59°24' E 018°21'0 0.0
2017-Aug-08 20:00N 59°24' E 018°21'0 0.0
2017-Aug-08 19:30N 59°24' E 018°21'0 0.0
2017-Aug-08 19:01N 59°24' E 018°21'0 0.0
2017-Aug-08 18:30N 59°24' E 018°21'0 0.0
2017-Aug-08 18:00N 59°24' E 018°21'1 2.1
2017-Aug-08 17:30N 59°24' E 018°23'2 4.7
2017-Aug-08 17:00N 59°21' E 018°25'2 3.7
2017-Aug-08 16:30N 59°23' E 018°26'3 5.4
2017-Aug-08 16:00N 59°24' E 018°21'3 5.2
2017-Aug-08 15:29N 59°23' E 018°26'2 4.3
2017-Aug-08 15:00N 59°22' E 018°22'3 5.8
2017-Aug-08 14:30N 59°22' E 018°16'4 7.5
2017-Aug-08 14:00N 59°24' E 018°23'2 4.1
2017-Aug-08 13:30N 59°23' E 018°26'1 1.3
2017-Aug-08 13:01N 59°22' E 018°26'3 5.8
2017-Aug-08 12:29N 59°24' E 018°22'2 3.9
2017-Aug-08 11:59N 59°23' E 018°25'2 4.9
2017-Aug-08 11:30N 59°25' E 018°22'1 1.4
2017-Aug-08 11:00N 59°24' E 018°22'0 0.0
2017-Aug-08 10:30N 59°24' E 018°22'0 0.0
2017-Aug-08 10:00N 59°24' E 018°22'0 0.0
2017-Aug-08 09:30N 59°24' E 018°22'0 0.0
2017-Aug-08 09:00N 59°24' E 018°22'0 0.0
2017-Aug-08 08:30N 59°24' E 018°22'0 0.9
2017-Aug-08 08:00N 59°24' E 018°21'1 1.7
2017-Aug-08 07:29N 59°24' E 018°23'2 2.2
2017-Aug-08 06:39N 59°23' E 018°26'1 8.1
2017-Aug-08 06:30N 59°23' E 018°24'2 3.0
2017-Aug-08 06:00N 59°24' E 018°21'2 3.7
2017-Aug-08 05:30N 59°22' E 018°21'2 4.8
2017-Aug-08 05:00N 59°23' E 018°26'3 5.8
2017-Aug-08 04:30N 59°24' E 018°21'0 0.0
2017-Aug-08 04:00N 59°24' E 018°21'0 0.0
2017-Aug-08 03:30N 59°24' E 018°21'0 0.0
2017-Aug-08 03:00N 59°24' E 018°21'0 0.0
2017-Aug-08 02:30N 59°24' E 018°21'0 0.0
2017-Aug-08 02:00N 59°24' E 018°21'0 0.0
2017-Aug-08 01:30N 59°24' E 018°21'0 0.0
2017-Aug-08 01:00N 59°24' E 018°21'0 0.0
2017-Aug-08 00:30N 59°24' E 018°21'0 0.0
2017-Aug-08 00:00N 59°24' E 018°21'0 0.0
2017-Aug-07 23:30N 59°24' E 018°21'0 0.0
2017-Aug-07 23:00N 59°24' E 018°21'0 0.0
2017-Aug-07 22:30N 59°24' E 018°21'0 0.0
2017-Aug-07 22:00N 59°24' E 018°21'0 0.0
2017-Aug-07 21:30N 59°24' E 018°21'0 0.0
2017-Aug-07 20:59N 59°24' E 018°21'0 0.0
2017-Aug-07 20:30N 59°24' E 018°21'0 0.0
2017-Aug-07 20:00N 59°24' E 018°21'0 0.0
2017-Aug-07 19:30N 59°24' E 018°21'0 0.0
2017-Aug-07 18:59N 59°24' E 018°21'0 0.0
2017-Aug-07 18:30N 59°24' E 018°21'0 0.0
2017-Aug-07 18:00N 59°24' E 018°21'1 1.9
2017-Aug-07 17:30N 59°24' E 018°23'2 1.7
2017-Aug-07 16:30N 59°23' E 018°26'3 5.3
2017-Aug-07 16:00N 59°24' E 018°21'3 5.9
2017-Aug-07 15:31N 59°23' E 018°26'2 4.6
2017-Aug-07 15:00N 59°22' E 018°22'2 4.5
2017-Aug-07 14:30N 59°23' E 018°17'3 4.9
2017-Aug-07 13:59N 59°24' E 018°21'2 4.6
2017-Aug-07 13:30N 59°23' E 018°25'1 2.4
2017-Aug-07 12:58N 59°22' E 018°26'3 6.2
2017-Aug-07 12:30N 59°24' E 018°22'0 0.7
2017-Aug-07 12:00N 59°24' E 018°23'2 3.3
2017-Aug-07 11:30N 59°25' E 018°22'1 2.5
2017-Aug-07 11:00N 59°24' E 018°21'0 0.0
2017-Aug-07 10:30N 59°24' E 018°21'0 0.0
2017-Aug-07 10:00N 59°24' E 018°21'0 0.0
2017-Aug-07 09:30N 59°24' E 018°21'0 0.0
2017-Aug-07 09:00N 59°24' E 018°21'0 0.0
2017-Aug-07 08:30N 59°24' E 018°21'0 0.1
2017-Aug-07 08:00N 59°24' E 018°21'1 1.7
2017-Aug-07 07:30N 59°24' E 018°23'1 1.4
2017-Aug-07 06:35N 59°23' E 018°25'1 6.6
2017-Aug-07 06:30N 59°23' E 018°24'2 3.0
2017-Aug-07 06:00N 59°24' E 018°21'  

Dump ship's entire track history